Terminal Aerodrome Forecast
Issued by NWS

Home | Current Version | Previous Version | Graphics & Text | Print | Product List | Glossary On
Versions: 1 2 3 4 5 6 7 8 9 10 11 12 13 14 15 16 17 18 19 20 21
000
FTUS43 KABR 281000 AAA
TAFATY
TAF AMD
KATY 281018Z 2810/2906 16010KT P6SM BKN200
     FM281200 17005KT 4SM BR SCT250
     FM281600 30006KT P6SM SCT150
     FM282200 33017G25KT P6SM SCT030
     FM290200 33024G35KT P6SM OVC015=

USA.gov is the U.S. government's official web portal to all federal, state and local government web resources and services.